createdAt,value
2022-12-18T00:01:33.018Z,61.44
2022-12-18T00:03:59.389Z,61.61
2022-12-18T00:06:25.723Z,61.34
2022-12-18T00:08:52.012Z,60.94
2022-12-18T00:11:18.284Z,61.10
2022-12-18T00:13:44.535Z,61.24
2022-12-18T00:16:10.890Z,60.94
2022-12-18T00:18:37.581Z,61.43
2022-12-18T00:21:04.048Z,61.37
2022-12-18T00:23:30.318Z,61.53
2022-12-18T00:25:56.580Z,61.75
2022-12-18T00:28:22.879Z,61.59
2022-12-18T00:30:49.144Z,61.77
2022-12-18T00:33:15.404Z,62.05
2022-12-18T00:35:41.694Z,61.79
2022-12-18T00:38:08.076Z,61.81
2022-12-18T00:40:34.327Z,61.58
2022-12-18T00:43:00.574Z,61.32
2022-12-18T00:45:26.867Z,61.44
2022-12-18T00:47:53.261Z,61.71
2022-12-18T00:50:19.511Z,61.73
2022-12-18T00:52:45.749Z,61.56
2022-12-18T00:55:11.993Z,61.81
2022-12-18T00:57:38.272Z,61.83
2022-12-18T01:00:04.873Z,61.84
2022-12-18T01:02:31.208Z,61.68
2022-12-18T01:04:57.559Z,61.40
2022-12-18T01:07:23.838Z,61.60
2022-12-18T01:09:50.097Z,61.39
2022-12-18T01:12:16.361Z,61.29
2022-12-18T01:14:42.617Z,61.30
2022-12-18T01:17:08.858Z,61.63
2022-12-18T01:19:35.128Z,61.64
2022-12-18T01:22:01.388Z,61.39
2022-12-18T01:24:27.682Z,60.93
2022-12-18T01:26:53.935Z,61.16
2022-12-18T01:29:20.377Z,61.25
2022-12-18T01:31:46.766Z,61.35
2022-12-18T01:34:13.169Z,61.32
2022-12-18T01:36:39.452Z,61.26
2022-12-18T01:39:05.716Z,61.00
2022-12-18T01:41:31.951Z,61.74
2022-12-18T01:43:58.302Z,61.61
2022-12-18T01:46:24.604Z,61.27
2022-12-18T01:48:50.858Z,61.07
2022-12-18T01:51:17.113Z,61.24
2022-12-18T01:53:43.376Z,60.89
2022-12-18T01:56:10.248Z,60.79
2022-12-18T01:58:36.535Z,60.67
2022-12-18T02:01:02.806Z,60.80
2022-12-18T02:03:29.168Z,60.57
2022-12-18T02:05:55.569Z,60.39
2022-12-18T02:08:21.871Z,60.72
2022-12-18T02:10:48.156Z,60.79
2022-12-18T02:13:14.430Z,60.75
2022-12-18T02:15:40.687Z,60.54
2022-12-18T02:18:06.960Z,60.61
2022-12-18T02:20:33.222Z,60.59
2022-12-18T02:22:59.495Z,60.75
2022-12-18T02:25:25.760Z,60.71
2022-12-18T02:27:52.201Z,60.66
2022-12-18T02:30:18.701Z,60.63
2022-12-18T02:32:44.961Z,60.51
2022-12-18T02:35:11.241Z,60.65
2022-12-18T02:37:37.495Z,60.45
2022-12-18T02:40:03.741Z,60.41
2022-12-18T02:42:30.002Z,60.50
2022-12-18T02:44:56.264Z,60.49
2022-12-18T02:47:22.513Z,60.46
2022-12-18T02:49:48.793Z,60.12
2022-12-18T02:52:15.040Z,60.42
2022-12-18T02:54:41.313Z,60.28
2022-12-18T02:57:07.576Z,60.14
2022-12-18T02:59:33.855Z,60.25
2022-12-18T03:02:00.497Z,60.14
2022-12-18T03:04:26.887Z,60.58
2022-12-18T03:06:53.140Z,60.28
2022-12-18T03:09:19.390Z,60.60
2022-12-18T03:11:45.642Z,60.86
2022-12-18T03:14:11.903Z,60.77
2022-12-18T03:16:38.185Z,60.69
2022-12-18T03:19:04.482Z,60.70
2022-12-18T03:21:30.747Z,60.89
2022-12-18T03:23:57.010Z,61.19
2022-12-18T03:26:23.288Z,61.33
2022-12-18T03:28:49.572Z,61.14
2022-12-18T03:31:15.917Z,61.18
2022-12-18T03:33:42.609Z,61.17
2022-12-18T03:36:09.362Z,61.17
2022-12-18T03:38:35.611Z,60.68
2022-12-18T03:41:01.879Z,61.09
2022-12-18T03:43:28.187Z,60.82
2022-12-18T03:45:54.459Z,60.91
2022-12-18T03:48:20.713Z,61.24
2022-12-18T03:50:46.980Z,61.07
2022-12-18T03:53:13.246Z,61.04
2022-12-18T03:55:39.501Z,61.01
2022-12-18T03:58:05.759Z,61.13
2022-12-18T04:00:32.020Z,61.18
2022-12-18T04:02:58.272Z,61.17
2022-12-18T04:05:24.521Z,61.34
2022-12-18T04:07:50.817Z,61.16
2022-12-18T04:10:17.087Z,61.10
2022-12-18T04:12:43.396Z,60.99
2022-12-18T04:15:09.656Z,61.47
2022-12-18T04:17:35.920Z,61.48
2022-12-18T04:20:02.203Z,61.61
2022-12-18T04:22:28.481Z,61.56
2022-12-18T04:24:54.757Z,61.32
2022-12-18T04:27:21.013Z,61.31
2022-12-18T04:29:47.284Z,61.27
2022-12-18T04:32:13.564Z,61.31
2022-12-18T04:34:39.834Z,61.33
2022-12-18T04:37:06.109Z,60.97
2022-12-18T04:39:32.367Z,60.65
2022-12-18T04:41:58.618Z,60.64
2022-12-18T04:44:24.893Z,60.81
2022-12-18T04:46:51.196Z,60.29
2022-12-18T04:49:17.529Z,60.31
2022-12-18T04:51:43.782Z,59.97
2022-12-18T04:54:10.028Z,59.89
2022-12-18T04:56:36.291Z,59.81
2022-12-18T04:59:02.559Z,60.07
2022-12-18T05:01:34.374Z,59.64
2022-12-18T05:04:01.235Z,59.75
2022-12-18T05:06:27.510Z,59.75
2022-12-18T05:08:53.780Z,59.33
2022-12-18T05:11:20.058Z,59.29
2022-12-18T05:13:46.370Z,59.20
2022-12-18T05:16:12.691Z,59.23
2022-12-18T05:18:39.004Z,59.48
2022-12-18T05:21:05.258Z,59.57
2022-12-18T05:23:31.521Z,59.28
2022-12-18T05:25:57.789Z,59.27
2022-12-18T05:28:24.091Z,59.35
2022-12-18T05:30:50.378Z,59.04
2022-12-18T05:33:16.664Z,59.26
2022-12-18T05:35:42.942Z,59.06
2022-12-18T05:38:09.220Z,59.15
2022-12-18T05:40:35.491Z,59.07
2022-12-18T05:43:01.783Z,59.05
2022-12-18T05:45:28.042Z,59.08
2022-12-18T05:47:54.316Z,59.18
2022-12-18T05:50:21.245Z,59.14
2022-12-18T05:52:47.501Z,59.32
2022-12-18T05:55:13.748Z,59.26
2022-12-18T05:57:40.005Z,58.83
2022-12-18T06:00:06.278Z,59.04
2022-12-18T06:02:32.594Z,59.11
2022-12-18T06:04:58.888Z,58.91
2022-12-18T06:07:25.141Z,58.97
2022-12-18T06:09:51.415Z,58.80
2022-12-18T06:12:17.694Z,58.81
2022-12-18T06:14:43.952Z,58.96
2022-12-18T06:17:10.210Z,59.01
2022-12-18T06:19:36.480Z,58.84
2022-12-18T06:22:02.727Z,58.68
2022-12-18T06:24:28.994Z,58.67
2022-12-18T06:26:55.518Z,58.62
2022-12-18T06:29:21.763Z,58.42
2022-12-18T06:31:48.083Z,58.28
2022-12-18T06:34:14.446Z,58.52
2022-12-18T06:36:40.739Z,58.55
2022-12-18T06:39:06.983Z,58.54
2022-12-18T06:41:33.653Z,58.54
2022-12-18T06:44:00.294Z,58.27
2022-12-18T06:46:26.677Z,58.30
2022-12-18T06:48:52.963Z,57.99
2022-12-18T06:51:19.222Z,57.83
2022-12-18T06:53:45.501Z,57.96
2022-12-18T06:56:11.776Z,58.50
2022-12-18T06:58:38.044Z,58.46
2022-12-18T07:01:04.362Z,58.11
2022-12-18T07:03:30.645Z,58.10
2022-12-18T07:05:56.904Z,58.14
2022-12-18T07:08:23.162Z,58.19
2022-12-18T07:10:52.904Z,58.13
2022-12-18T07:13:22.271Z,58.30
2022-12-18T07:15:48.556Z,58.31
2022-12-18T07:18:14.827Z,58.35
2022-12-18T07:20:41.618Z,58.25
2022-12-18T07:23:07.901Z,58.27
2022-12-18T07:25:34.177Z,58.42
2022-12-18T07:28:00.432Z,58.33
2022-12-18T07:30:26.674Z,58.63
2022-12-18T07:32:52.930Z,58.82
2022-12-18T07:35:23.373Z,58.76
2022-12-18T07:37:51.145Z,58.72
2022-12-18T07:40:17.413Z,58.75
2022-12-18T07:42:43.700Z,59.24
2022-12-18T07:45:09.965Z,59.35
2022-12-18T07:47:36.252Z,58.74
2022-12-18T07:50:02.502Z,58.99
2022-12-18T07:52:28.756Z,59.18
2022-12-18T07:54:55.036Z,59.08
2022-12-18T07:57:48.809Z,59.31
2022-12-18T08:00:07.548Z,59.05
2022-12-18T08:02:33.989Z,59.34
2022-12-18T08:05:01.021Z,59.26
2022-12-18T08:07:27.310Z,59.25
2022-12-18T08:09:53.578Z,59.61
2022-12-18T08:12:19.970Z,59.37
2022-12-18T08:14:46.216Z,59.64
2022-12-18T08:17:12.469Z,59.37
2022-12-18T08:19:38.769Z,59.33
2022-12-18T08:22:05.042Z,59.29
2022-12-18T08:24:31.325Z,59.43
2022-12-18T08:27:27.974Z,59.27
2022-12-18T08:29:43.829Z,59.32
2022-12-18T08:32:10.103Z,59.46
2022-12-18T08:34:36.368Z,59.26
2022-12-18T08:37:02.641Z,59.11
2022-12-18T08:39:28.914Z,59.30
2022-12-18T08:41:55.223Z,59.64
2022-12-18T08:44:21.504Z,59.34
2022-12-18T08:46:47.770Z,59.60
2022-12-18T08:49:14.107Z,59.54
2022-12-18T08:51:40.350Z,59.98
2022-12-18T08:54:06.730Z,59.99
2022-12-18T08:56:33.067Z,60.16
2022-12-18T08:58:59.323Z,60.06
2022-12-18T09:01:25.974Z,59.92
2022-12-18T09:03:52.453Z,60.03
2022-12-18T09:06:19.176Z,59.92
2022-12-18T09:08:45.713Z,60.14
2022-12-18T09:11:12.010Z,60.24
2022-12-18T09:13:38.585Z,60.07
2022-12-18T09:16:05.131Z,59.96
2022-12-18T09:18:31.377Z,59.73
2022-12-18T09:24:08.864Z,59.75
2022-12-18T09:26:35.469Z,59.39
2022-12-18T09:29:01.777Z,59.52
2022-12-18T09:31:28.050Z,59.44
2022-12-18T09:33:54.462Z,59.39
2022-12-18T09:36:20.729Z,59.62
2022-12-18T09:38:48.089Z,59.45
2022-12-18T09:41:14.353Z,60.15
2022-12-18T09:43:40.619Z,60.26
2022-12-18T09:46:06.922Z,60.11
2022-12-18T09:48:33.192Z,60.02
2022-12-18T09:50:59.452Z,60.20
2022-12-18T09:53:25.771Z,60.15
2022-12-18T09:55:52.041Z,59.74
2022-12-18T09:58:18.312Z,59.64
2022-12-18T10:00:44.578Z,59.51
2022-12-18T10:03:12.188Z,59.55
2022-12-18T10:05:38.572Z,59.72
2022-12-18T10:08:04.846Z,59.37
2022-12-18T10:10:31.105Z,59.14
2022-12-18T10:13:04.058Z,59.47
2022-12-18T10:15:30.932Z,59.13
2022-12-18T10:17:57.297Z,59.13
2022-12-18T10:20:23.577Z,58.77
2022-12-18T10:22:49.872Z,58.97
2022-12-18T10:25:16.121Z,59.30
2022-12-18T10:27:42.382Z,58.96
2022-12-18T10:30:10.432Z,58.74
2022-12-18T10:32:36.735Z,58.41
2022-12-18T10:35:03.029Z,58.28
2022-12-18T10:37:29.279Z,58.39
2022-12-18T10:39:55.552Z,58.56
2022-12-18T10:42:21.805Z,58.46
2022-12-18T10:44:48.067Z,58.57
2022-12-18T10:47:14.422Z,58.44
2022-12-18T10:49:40.808Z,58.79
2022-12-18T10:52:07.098Z,58.41
2022-12-18T10:54:33.526Z,58.36
2022-12-18T10:56:59.787Z,58.53
2022-12-18T10:59:26.054Z,58.36
2022-12-18T11:01:52.451Z,58.70
2022-12-18T11:04:18.831Z,58.51
2022-12-18T11:06:45.095Z,58.42
2022-12-18T11:09:12.848Z,58.14
2022-12-18T11:11:40.833Z,58.43
2022-12-18T11:14:07.102Z,58.37
2022-12-18T11:16:33.460Z,58.62
2022-12-18T11:18:59.720Z,58.75
2022-12-18T11:21:25.976Z,58.58
2022-12-18T11:23:52.266Z,58.03
2022-12-18T11:26:18.546Z,58.36
2022-12-18T11:28:45.291Z,57.87
2022-12-18T11:31:12.112Z,58.02
2022-12-18T11:33:38.389Z,57.75
2022-12-18T11:36:04.660Z,58.06
2022-12-18T11:38:30.948Z,58.17
2022-12-18T11:40:57.264Z,57.83
2022-12-18T11:43:23.552Z,57.82
2022-12-18T11:45:49.879Z,57.96
2022-12-18T11:48:16.153Z,58.02
2022-12-18T11:50:42.427Z,57.35
2022-12-18T11:53:08.694Z,57.76
2022-12-18T11:55:34.975Z,57.45
2022-12-18T11:58:01.669Z,57.77
2022-12-18T12:00:27.959Z,57.30
2022-12-18T12:02:54.235Z,57.68
2022-12-18T12:05:20.542Z,57.52
2022-12-18T12:07:46.813Z,57.89
2022-12-18T12:10:13.069Z,57.86
2022-12-18T12:12:41.824Z,57.62
2022-12-18T12:15:11.501Z,58.04
2022-12-18T12:17:37.763Z,58.27
2022-12-18T12:20:04.022Z,58.05
2022-12-18T12:22:30.275Z,58.22
2022-12-18T12:24:56.529Z,58.06
2022-12-18T12:27:22.785Z,57.88
2022-12-18T12:29:49.050Z,57.55
2022-12-18T12:32:15.351Z,57.38
2022-12-18T12:34:41.645Z,57.54
2022-12-18T12:37:07.906Z,57.66
2022-12-18T12:39:34.176Z,57.20
2022-12-18T12:42:00.437Z,57.12
2022-12-18T12:44:26.703Z,57.46
2022-12-18T12:46:52.965Z,57.73
2022-12-18T12:49:19.297Z,57.04
2022-12-18T12:51:45.808Z,56.50
2022-12-18T12:54:13.326Z,56.37
2022-12-18T12:56:39.579Z,56.39
2022-12-18T12:59:05.847Z,55.88
2022-12-18T13:01:32.937Z,55.42
2022-12-18T13:04:00.149Z,56.74
2022-12-18T13:06:26.420Z,55.58
2022-12-18T13:08:52.694Z,55.58
2022-12-18T13:11:18.956Z,55.54
2022-12-18T13:13:46.443Z,55.43
2022-12-18T13:16:13.270Z,55.76
2022-12-18T13:18:39.952Z,55.64
2022-12-18T13:21:07.609Z,55.59
2022-12-18T13:23:33.885Z,55.58
2022-12-18T13:26:00.325Z,55.31
2022-12-18T13:28:26.706Z,55.51
2022-12-18T13:30:53.767Z,54.97
2022-12-18T13:33:23.415Z,54.77
2022-12-18T13:35:49.724Z,54.67
2022-12-18T13:38:16.142Z,54.43
2022-12-18T13:40:43.735Z,54.61
2022-12-18T13:43:10.322Z,54.55
2022-12-18T13:45:37.627Z,54.73
2022-12-18T13:48:03.996Z,54.45
2022-12-18T13:50:36.117Z,53.79
2022-12-18T13:53:02.720Z,54.35
2022-12-18T13:55:29.073Z,53.75
2022-12-18T13:57:55.334Z,53.65
2022-12-18T14:00:22.535Z,53.52
2022-12-18T14:02:49.095Z,53.77
2022-12-18T14:05:15.390Z,53.62
2022-12-18T14:07:41.881Z,53.86
2022-12-18T14:10:41.836Z,54.15
2022-12-18T14:12:56.353Z,53.95
2022-12-18T14:15:22.924Z,54.06
2022-12-18T14:17:49.294Z,54.30
2022-12-18T14:20:15.550Z,53.02
2022-12-18T14:22:41.815Z,53.08
2022-12-18T14:25:08.059Z,53.73
2022-12-18T14:27:34.336Z,53.04
2022-12-18T14:30:00.588Z,53.49
2022-12-18T14:32:26.837Z,53.72
2022-12-18T14:34:53.128Z,53.39
2022-12-18T14:37:19.401Z,53.94
2022-12-18T14:39:45.662Z,53.68
2022-12-18T14:42:11.922Z,53.79
2022-12-18T14:44:50.648Z,54.47
2022-12-18T14:47:24.415Z,54.56
2022-12-18T14:49:50.774Z,53.68
2022-12-18T14:52:17.124Z,53.93
2022-12-18T14:54:43.377Z,54.34
2022-12-18T14:57:09.641Z,54.50
2022-12-18T14:59:36.642Z,54.29
2022-12-18T15:02:03.128Z,54.80
2022-12-18T15:04:30.569Z,54.73
2022-12-18T15:06:56.819Z,54.40
2022-12-18T15:09:23.078Z,54.58
2022-12-18T15:11:49.392Z,54.11
2022-12-18T15:14:15.845Z,54.75
2022-12-18T15:16:46.142Z,55.20
2022-12-18T15:19:12.604Z,55.08
2022-12-18T15:21:38.879Z,54.99
2022-12-18T15:24:05.222Z,55.52
2022-12-18T15:26:31.471Z,55.55
2022-12-18T15:28:57.752Z,55.76
2022-12-18T15:31:24.112Z,55.32
2022-12-18T15:33:50.453Z,55.71
2022-12-18T15:36:16.716Z,55.79
2022-12-18T15:38:45.267Z,56.06
2022-12-18T15:41:14.200Z,56.17
2022-12-18T15:43:41.062Z,56.13
2022-12-18T15:46:07.746Z,55.83
2022-12-18T15:48:34.044Z,56.46
2022-12-18T15:51:00.322Z,56.64
2022-12-18T15:53:26.578Z,56.54
2022-12-18T15:55:56.542Z,57.01
2022-12-18T15:58:27.076Z,56.50
2022-12-18T16:00:53.343Z,57.10
2022-12-18T16:03:19.733Z,56.89
2022-12-18T16:05:46.161Z,56.70
2022-12-18T16:08:12.450Z,56.44
2022-12-18T16:10:38.720Z,56.53
2022-12-18T16:13:05.001Z,56.66
2022-12-18T16:15:31.307Z,56.57
2022-12-18T16:17:57.589Z,56.59
2022-12-18T16:20:23.858Z,56.89
2022-12-18T16:22:50.138Z,57.04
2022-12-18T16:25:16.404Z,57.03
2022-12-18T16:27:42.693Z,57.00
2022-12-18T16:30:10.346Z,56.95
2022-12-18T16:32:36.614Z,57.35
2022-12-18T16:35:02.904Z,57.35
2022-12-18T16:37:29.266Z,57.32
2022-12-18T16:39:55.565Z,57.45
2022-12-18T16:42:21.839Z,57.64
2022-12-18T16:44:48.138Z,57.68
2022-12-18T16:47:15.050Z,57.70
2022-12-18T16:49:41.787Z,57.47
2022-12-18T16:52:08.106Z,57.84
2022-12-18T16:54:34.360Z,57.79
2022-12-18T16:57:00.627Z,57.51
2022-12-18T16:59:26.983Z,57.89
2022-12-18T17:01:54.366Z,58.08
2022-12-18T17:04:20.722Z,58.01
2022-12-18T17:06:47.004Z,58.40
2022-12-18T17:09:13.302Z,58.45
2022-12-18T17:11:39.568Z,58.54
2022-12-18T17:14:05.907Z,58.56
2022-12-18T17:16:32.230Z,58.62
2022-12-18T17:18:59.795Z,58.59
2022-12-18T17:21:26.135Z,58.50
2022-12-18T17:23:52.410Z,58.36
2022-12-18T17:26:18.696Z,58.32
2022-12-18T17:28:45.026Z,58.63
2022-12-18T17:31:11.478Z,58.53
2022-12-18T17:33:38.210Z,59.84
2022-12-18T17:36:04.731Z,60.00
2022-12-18T17:38:30.994Z,60.63
2022-12-18T17:40:57.293Z,60.95
2022-12-18T17:43:23.545Z,60.82
2022-12-18T17:45:49.809Z,60.53
2022-12-18T17:48:16.077Z,60.42
2022-12-18T17:50:42.357Z,60.36
2022-12-18T17:53:08.633Z,60.25
2022-12-18T17:55:34.916Z,59.76
2022-12-18T17:58:01.247Z,59.75
2022-12-18T18:00:27.608Z,59.81
2022-12-18T18:02:54.059Z,60.20
2022-12-18T18:05:20.400Z,59.95
2022-12-18T18:07:47.870Z,60.09
2022-12-18T18:10:14.129Z,60.38
2022-12-18T18:12:40.379Z,60.41
2022-12-18T18:15:06.756Z,60.30
2022-12-18T18:17:33.019Z,60.59
2022-12-18T18:19:59.293Z,60.41
2022-12-18T18:22:25.569Z,60.78
2022-12-18T18:24:52.223Z,60.55
2022-12-18T18:27:18.498Z,60.13
2022-12-18T18:29:44.800Z,60.39
2022-12-18T18:32:11.046Z,60.23
2022-12-18T18:34:37.321Z,60.00
2022-12-18T18:37:03.948Z,60.34
2022-12-18T18:39:30.237Z,60.23
2022-12-18T18:41:56.502Z,60.13
2022-12-18T18:44:24.868Z,60.34
2022-12-18T18:46:52.523Z,60.38
2022-12-18T18:49:18.795Z,60.34
2022-12-18T18:51:45.081Z,60.31
2022-12-18T18:54:11.352Z,60.72
2022-12-18T18:59:25.027Z,60.93
2022-12-18T19:01:58.545Z,61.10
2022-12-18T19:04:24.942Z,61.42
2022-12-18T19:06:51.225Z,61.16
2022-12-18T19:09:18.072Z,61.43
2022-12-18T19:11:44.322Z,61.30
2022-12-18T19:14:10.724Z,61.05
2022-12-18T19:16:37.054Z,61.11
2022-12-18T19:19:03.581Z,60.75
2022-12-18T19:21:31.141Z,61.16
2022-12-18T19:23:59.695Z,60.93
2022-12-18T19:26:28.234Z,61.21
2022-12-18T19:28:55.048Z,61.15
2022-12-18T19:31:25.413Z,61.00
2022-12-18T19:33:53.426Z,61.32
2022-12-18T19:36:19.713Z,60.97
2022-12-18T19:38:46.148Z,61.07
2022-12-18T19:41:12.608Z,60.99
2022-12-18T19:43:40.144Z,61.62
2022-12-18T19:46:06.416Z,61.37
2022-12-18T19:48:32.751Z,61.39
2022-12-18T19:50:59.025Z,61.64
2022-12-18T19:53:25.401Z,61.48
2022-12-18T19:55:51.685Z,61.56
2022-12-18T19:58:17.932Z,61.91
2022-12-18T20:00:46.804Z,61.78
2022-12-18T20:03:24.259Z,61.65
2022-12-18T20:05:53.550Z,61.74
2022-12-18T20:08:19.806Z,62.01
2022-12-18T20:10:46.074Z,62.19
2022-12-18T20:13:12.421Z,61.97
2022-12-18T20:15:45.146Z,62.31
2022-12-18T20:18:11.841Z,61.93
2022-12-18T20:20:38.272Z,62.16
2022-12-18T20:23:04.563Z,62.02
2022-12-18T20:25:30.812Z,61.93
2022-12-18T20:27:57.069Z,62.32
2022-12-18T20:30:23.885Z,62.08
2022-12-18T20:32:50.148Z,62.20
2022-12-18T20:35:16.441Z,62.08
2022-12-18T20:37:46.085Z,62.32
2022-12-18T20:40:15.066Z,62.25
2022-12-18T20:42:41.342Z,62.18
2022-12-18T20:45:07.594Z,62.11
2022-12-18T20:47:33.842Z,61.91
2022-12-18T20:50:00.106Z,62.16
2022-12-18T20:52:26.423Z,61.83
2022-12-18T20:54:52.693Z,61.96
2022-12-18T20:57:18.962Z,61.97
2022-12-18T20:59:48.329Z,62.26
2022-12-18T21:02:14.998Z,62.35
2022-12-18T21:04:41.357Z,62.31
2022-12-18T21:07:07.631Z,62.13
2022-12-18T21:09:38.056Z,62.38
2022-12-18T21:12:04.862Z,62.56
2022-12-18T21:14:31.110Z,62.03
2022-12-18T21:16:57.442Z,62.40
2022-12-18T21:19:23.806Z,62.14
2022-12-18T21:21:50.106Z,62.07
2022-12-18T21:24:16.415Z,61.93
2022-12-18T21:26:45.768Z,62.02
2022-12-18T21:29:12.652Z,62.63
2022-12-18T21:31:38.942Z,62.21
2022-12-18T21:34:05.261Z,62.57
2022-12-18T21:36:31.546Z,62.41
2022-12-18T21:38:58.368Z,62.58
2022-12-18T21:41:24.774Z,62.72
2022-12-18T21:43:51.330Z,62.64
2022-12-18T21:46:17.678Z,62.75
2022-12-18T21:48:43.972Z,62.55
2022-12-18T21:51:10.351Z,62.66
2022-12-18T21:53:36.689Z,62.61
2022-12-18T21:56:02.964Z,62.33
2022-12-18T21:58:29.223Z,62.56
2022-12-18T22:00:55.473Z,62.78
2022-12-18T22:03:21.892Z,62.48
2022-12-18T22:05:50.581Z,62.67
2022-12-18T22:08:33.790Z,62.58
2022-12-18T22:11:00.118Z,62.65
2022-12-18T22:13:26.404Z,62.53
2022-12-18T22:15:52.680Z,62.59
2022-12-18T22:18:18.962Z,62.89
2022-12-18T22:20:45.267Z,62.37
2022-12-18T22:23:11.529Z,62.70
2022-12-18T22:25:38.931Z,62.76
2022-12-18T22:28:06.100Z,62.70
2022-12-18T22:30:32.396Z,62.43
2022-12-18T22:32:59.205Z,62.07
2022-12-18T22:35:25.454Z,62.95
2022-12-18T22:37:51.703Z,62.69
2022-12-18T22:40:22.254Z,62.85
2022-12-18T22:42:50.517Z,62.67
2022-12-18T22:45:18.818Z,62.75
2022-12-18T22:47:45.103Z,62.34
2022-12-18T22:50:11.355Z,62.53
2022-12-18T22:52:37.631Z,62.97
2022-12-18T22:55:03.913Z,62.83
2022-12-18T22:57:32.735Z,62.65
2022-12-18T23:00:00.086Z,62.82
2022-12-18T23:02:26.520Z,62.85
2022-12-18T23:04:52.930Z,62.90
2022-12-18T23:07:19.198Z,62.69
2022-12-18T23:09:45.578Z,63.00
2022-12-18T23:12:13.486Z,62.83
2022-12-18T23:14:39.753Z,63.19
2022-12-18T23:17:06.010Z,63.16
2022-12-18T23:19:32.278Z,63.04
2022-12-18T23:21:58.531Z,63.12
2022-12-18T23:24:24.767Z,63.31
2022-12-18T23:26:51.016Z,63.11
2022-12-18T23:29:17.285Z,63.16
2022-12-18T23:31:43.634Z,63.47
2022-12-18T23:34:10.076Z,63.08
2022-12-18T23:36:45.627Z,63.45
2022-12-18T23:39:15.488Z,62.94
2022-12-18T23:41:55.492Z,63.24
2022-12-18T23:44:21.765Z,63.27
2022-12-18T23:46:48.049Z,63.20
2022-12-18T23:49:14.305Z,62.77
2022-12-18T23:51:40.590Z,63.31
2022-12-18T23:54:06.842Z,63.28
2022-12-18T23:56:33.107Z,62.79
2022-12-18T23:58:59.373Z,63.21
